createdAt,value
2019-05-14T00:02:02.847Z,8.50
2019-05-14T00:04:32.580Z,6.40
2019-05-14T00:07:03.320Z,7.80
2019-05-14T00:09:33.818Z,7.37
2019-05-14T00:12:04.490Z,8.23
2019-05-14T00:14:39.594Z,7.57
2019-05-14T00:17:07.177Z,6.27
2019-05-14T00:19:38.139Z,7.10
2019-05-14T00:22:08.657Z,5.73
2019-05-14T00:24:41.663Z,5.20
2019-05-14T00:27:12.108Z,6.10
2019-05-14T00:29:44.032Z,5.93
2019-05-14T00:32:14.666Z,5.77
2019-05-14T00:34:45.282Z,5.53
2019-05-14T00:37:15.683Z,6.20
2019-05-14T00:39:46.236Z,5.07
2019-05-14T00:42:16.701Z,5.57
2019-05-14T00:44:54.318Z,5.50
2019-05-14T00:47:21.529Z,4.60
2019-05-14T00:49:51.936Z,5.90
2019-05-14T00:52:22.674Z,5.23
2019-05-14T00:54:53.218Z,5.90
2019-05-14T00:57:23.757Z,5.90
2019-05-14T00:59:54.351Z,5.60
2019-05-14T01:02:24.797Z,5.70
2019-05-14T01:04:55.427Z,6.17
2019-05-14T01:07:26.115Z,6.57
2019-05-14T01:09:56.686Z,5.43
2019-05-14T01:12:27.507Z,5.83
2019-05-14T01:15:09.548Z,5.67
2019-05-14T01:17:31.466Z,5.87
2019-05-14T01:20:03.150Z,4.87
2019-05-14T01:22:36.633Z,5.83
2019-05-14T01:25:07.273Z,6.03
2019-05-14T01:27:37.839Z,5.30
2019-05-14T01:30:08.733Z,5.13
2019-05-14T01:32:41.845Z,5.40
2019-05-14T01:35:12.210Z,5.10
2019-05-14T01:37:42.951Z,5.83
2019-05-14T01:40:13.687Z,5.17
2019-05-14T01:42:44.142Z,5.87
2019-05-14T01:45:26.955Z,5.50
2019-05-14T01:47:48.002Z,6.10
2019-05-14T01:50:18.638Z,6.57
2019-05-14T01:52:49.053Z,6.20
2019-05-14T01:55:21.778Z,6.17
2019-05-14T01:57:51.940Z,6.50
2019-05-14T02:00:23.030Z,6.90
2019-05-14T02:02:53.604Z,6.60
2019-05-14T02:05:25.700Z,6.67
2019-05-14T02:07:57.315Z,6.37
2019-05-14T02:10:27.967Z,6.87
2019-05-14T02:12:58.593Z,5.80
2019-05-14T02:15:37.178Z,6.50
2019-05-14T02:18:02.344Z,7.43
2019-05-14T02:20:33.252Z,7.07
2019-05-14T02:23:03.936Z,7.23
2019-05-14T02:25:34.473Z,7.77
2019-05-14T02:28:04.959Z,6.73
2019-05-14T02:30:48.110Z,7.30
2019-05-14T02:33:09.231Z,7.63
2019-05-14T02:35:40.064Z,6.67
2019-05-14T02:38:10.581Z,7.17
2019-05-14T02:40:40.963Z,6.90
2019-05-14T02:43:11.596Z,7.20
2019-05-14T02:46:00.466Z,6.77
2019-05-14T02:48:14.788Z,7.60
2019-05-14T02:50:45.489Z,7.10
2019-05-14T02:53:19.505Z,7.37
2019-05-14T02:55:49.740Z,7.80
2019-05-14T02:58:21.190Z,7.47
2019-05-14T03:00:51.950Z,7.87
2019-05-14T03:03:22.598Z,7.57
2019-05-14T03:06:04.947Z,8.30
2019-05-14T03:08:38.839Z,7.33
2019-05-14T03:11:09.427Z,8.17
2019-05-14T03:13:40.381Z,7.37
2019-05-14T03:16:25.967Z,8.27
2019-05-14T03:18:44.614Z,8.10
2019-05-14T03:21:15.164Z,7.90
2019-05-14T03:23:45.664Z,7.50
2019-05-14T03:26:19.591Z,7.87
2019-05-14T03:28:49.584Z,8.43
2019-05-14T03:31:22.519Z,8.13
2019-05-14T03:33:53.479Z,7.93
2019-05-14T03:36:27.111Z,7.93
2019-05-14T03:38:59.192Z,8.13
2019-05-14T03:41:30.590Z,8.30
2019-05-14T03:44:01.035Z,7.67
2019-05-14T03:46:45.827Z,8.83
2019-05-14T03:49:03.904Z,8.50
2019-05-14T03:51:34.641Z,8.33
2019-05-14T03:54:07.881Z,8.47
2019-05-14T03:56:39.497Z,8.00
2019-05-14T03:59:10.557Z,7.60
2019-05-14T04:01:41.252Z,8.43
2019-05-14T04:04:12.379Z,8.50
2019-05-14T04:06:44.063Z,8.50
2019-05-14T04:09:15.747Z,7.60
2019-05-14T04:11:50.122Z,8.43
2019-05-14T04:14:23.818Z,8.13
2019-05-14T04:17:05.248Z,8.37
2019-05-14T04:19:29.852Z,8.20
2019-05-14T04:22:05.460Z,8.90
2019-05-14T04:24:41.538Z,8.43
2019-05-14T04:27:14.632Z,9.63
2019-05-14T04:29:49.596Z,9.47
2019-05-14T04:32:21.092Z,8.60
2019-05-14T04:34:51.791Z,8.30
2019-05-14T04:37:22.806Z,8.77
2019-05-14T04:39:53.501Z,8.87
2019-05-14T04:42:24.349Z,9.43
2019-05-14T04:44:55.069Z,9.27
2019-05-14T04:47:32.001Z,9.37
2019-05-14T04:49:59.140Z,8.57
2019-05-14T04:52:30.255Z,8.00
2019-05-14T04:55:00.980Z,9.20
2019-05-14T04:57:31.823Z,8.57
2019-05-14T05:00:02.510Z,8.90
2019-05-14T05:02:33.077Z,8.70
2019-05-14T05:05:03.930Z,7.37
2019-05-14T05:07:34.598Z,9.13
2019-05-14T05:10:05.671Z,9.60
2019-05-14T05:12:38.733Z,9.90
2019-05-14T05:15:10.918Z,9.87
2019-05-14T05:17:47.987Z,9.10
2019-05-14T05:20:14.206Z,8.50
2019-05-14T05:22:45.443Z,9.27
2019-05-14T05:25:16.148Z,7.13
2019-05-14T05:27:48.726Z,8.20
2019-05-14T05:30:20.439Z,8.37
2019-05-14T05:32:51.719Z,8.40
2019-05-14T05:35:22.444Z,8.47
2019-05-14T05:37:53.073Z,7.47
2019-05-14T05:40:23.609Z,7.40
2019-05-14T05:42:54.160Z,8.13
2019-05-14T05:45:24.740Z,7.17
2019-05-14T05:47:59.030Z,7.20
2019-05-14T05:50:28.750Z,7.40
2019-05-14T05:52:59.510Z,6.00
2019-05-14T05:55:30.108Z,6.70
2019-05-14T05:58:00.773Z,5.57
2019-05-14T06:00:39.539Z,6.40
2019-05-14T06:03:10.897Z,6.53
2019-05-14T06:05:41.460Z,5.30
2019-05-14T06:08:12.227Z,5.97
2019-05-14T06:10:42.959Z,5.00
2019-05-14T06:13:14.185Z,5.57
2019-05-14T06:15:48.715Z,5.10
2019-05-14T06:18:19.444Z,5.13
2019-05-14T06:20:49.603Z,6.10
2019-05-14T06:23:20.348Z,4.27
2019-05-14T06:25:50.991Z,5.60
2019-05-14T06:28:21.673Z,5.13
2019-05-14T06:30:52.307Z,5.70
2019-05-14T06:33:22.929Z,5.10
2019-05-14T06:35:53.489Z,5.07
2019-05-14T06:38:24.082Z,4.50
2019-05-14T06:40:54.879Z,5.00
2019-05-14T06:43:25.476Z,4.37
2019-05-14T06:45:58.544Z,5.17
2019-05-14T06:48:34.501Z,4.90
2019-05-14T06:51:02.007Z,4.30
2019-05-14T06:53:33.042Z,4.43
2019-05-14T06:56:03.771Z,3.80
2019-05-14T06:58:34.333Z,4.00
2019-05-14T07:01:04.887Z,3.93
2019-05-14T07:03:35.509Z,4.10
2019-05-14T07:06:06.161Z,4.00
2019-05-14T07:08:39.287Z,4.23
2019-05-14T07:11:09.358Z,4.17
2019-05-14T07:13:39.922Z,4.20
2019-05-14T07:16:10.580Z,4.37
2019-05-14T07:18:49.311Z,3.87
2019-05-14T07:21:13.655Z,3.33
2019-05-14T07:23:44.547Z,3.53
2019-05-14T07:26:14.961Z,3.40
2019-05-14T07:28:45.641Z,3.10
2019-05-14T07:31:18.506Z,3.20
2019-05-14T07:33:49.453Z,2.97
2019-05-14T07:36:20.271Z,2.70
2019-05-14T07:38:50.925Z,3.00
2019-05-14T07:41:21.567Z,2.77
2019-05-14T07:43:52.280Z,3.50
2019-05-14T07:46:22.945Z,3.10
2019-05-14T07:49:04.328Z,3.90
2019-05-14T07:51:28.073Z,3.20
2019-05-14T07:53:58.199Z,3.70
2019-05-14T07:56:29.431Z,2.97
2019-05-14T07:59:02.367Z,3.03
2019-05-14T08:01:32.715Z,2.23
2019-05-14T08:04:03.410Z,2.30
2019-05-14T08:06:34.091Z,2.00
2019-05-14T08:09:08.714Z,1.93
2019-05-14T08:11:39.428Z,2.10
2019-05-14T08:14:10.063Z,2.23
2019-05-14T08:16:40.759Z,2.30
2019-05-14T08:19:24.140Z,2.40
2019-05-14T08:21:43.872Z,2.23
2019-05-14T08:24:15.295Z,3.67
2019-05-14T08:26:48.565Z,3.53
2019-05-14T08:29:18.981Z,4.33
2019-05-14T08:31:49.779Z,4.77
2019-05-14T08:34:20.298Z,5.40
2019-05-14T08:36:51.136Z,5.10
2019-05-14T08:39:21.869Z,4.30
2019-05-14T08:41:59.458Z,3.70
2019-05-14T08:44:24.888Z,3.20
2019-05-14T08:46:55.574Z,2.17
2019-05-14T08:49:38.906Z,1.67
2019-05-14T08:51:59.561Z,1.70
2019-05-14T08:54:30.378Z,2.20
2019-05-14T08:57:00.994Z,2.33
2019-05-14T08:59:32.666Z,2.90
2019-05-14T09:02:06.644Z,3.00
2019-05-14T09:04:41.887Z,3.33
2019-05-14T09:07:09.552Z,2.87
2019-05-14T09:09:40.492Z,3.17
2019-05-14T09:12:13.984Z,2.77
2019-05-14T09:14:44.618Z,3.20
2019-05-14T09:17:18.326Z,3.40
2019-05-14T09:20:00.939Z,3.77
2019-05-14T09:22:20.389Z,5.27
2019-05-14T09:24:51.135Z,6.37
2019-05-14T09:27:22.258Z,6.20
2019-05-14T09:29:52.726Z,5.87
2019-05-14T09:32:24.374Z,4.47
2019-05-14T09:34:55.208Z,2.80
2019-05-14T09:37:28.720Z,2.80
2019-05-14T09:39:58.568Z,2.90
2019-05-14T09:42:29.240Z,3.30
2019-05-14T09:44:59.982Z,3.67
2019-05-14T09:47:30.837Z,4.30
2019-05-14T09:50:14.125Z,3.90
2019-05-14T09:52:33.939Z,3.50
2019-05-14T09:55:04.746Z,4.43
2019-05-14T09:57:35.693Z,4.83
2019-05-14T10:00:09.151Z,3.77
2019-05-14T10:02:41.280Z,4.03
2019-05-14T10:05:12.338Z,4.30
2019-05-14T10:07:43.058Z,4.40
2019-05-14T10:10:13.643Z,3.60
2019-05-14T10:12:52.919Z,6.07
2019-05-14T10:15:16.645Z,5.17
2019-05-14T10:17:50.056Z,4.50
2019-05-14T10:20:36.638Z,4.80
2019-05-14T10:22:54.391Z,4.40
2019-05-14T10:25:26.050Z,4.03
2019-05-14T10:27:59.078Z,2.97
2019-05-14T10:30:29.998Z,3.00
2019-05-14T10:33:09.019Z,2.73
2019-05-14T10:35:33.463Z,2.90
2019-05-14T10:38:04.203Z,3.03
2019-05-14T10:40:34.844Z,2.87
2019-05-14T10:43:05.622Z,2.97
2019-05-14T10:45:38.478Z,3.23
2019-05-14T10:48:09.885Z,3.47
2019-05-14T10:50:56.273Z,3.33
2019-05-14T10:53:13.940Z,3.10
2019-05-14T10:55:44.609Z,3.90
2019-05-14T10:58:15.238Z,3.87
2019-05-14T11:00:45.850Z,4.20
2019-05-14T11:03:18.640Z,4.10
2019-05-14T11:05:48.933Z,3.23
2019-05-14T11:08:19.739Z,3.10
2019-05-14T11:10:51.619Z,5.27
2019-05-14T11:13:22.249Z,4.63
2019-05-14T11:15:52.851Z,4.03
2019-05-14T11:18:23.620Z,4.63
2019-05-14T11:20:54.162Z,5.23
2019-05-14T11:23:24.793Z,4.40
2019-05-14T11:25:55.466Z,5.63
2019-05-14T11:28:28.327Z,7.13
2019-05-14T11:30:58.340Z,5.87
2019-05-14T11:33:29.993Z,10.47
2019-05-14T11:36:01.655Z,6.43
2019-05-14T11:38:37.224Z,6.50
2019-05-14T11:41:04.643Z,4.63
2019-05-14T11:43:35.364Z,4.70
2019-05-14T11:46:08.421Z,4.30
2019-05-14T11:48:39.827Z,4.33
2019-05-14T11:51:10.467Z,5.10
2019-05-14T11:53:41.108Z,4.17
2019-05-14T11:56:11.730Z,4.07
2019-05-14T11:58:43.461Z,4.30
2019-05-14T12:01:14.222Z,3.97
2019-05-14T12:03:44.704Z,4.10
2019-05-14T12:06:15.497Z,4.60
2019-05-14T12:08:46.363Z,4.87
2019-05-14T12:11:19.375Z,5.57
2019-05-14T12:13:49.371Z,4.13
2019-05-14T12:16:19.995Z,3.67
2019-05-14T12:18:50.685Z,3.40
2019-05-14T12:21:21.310Z,3.83
2019-05-14T12:23:51.955Z,3.50
2019-05-14T12:26:22.551Z,3.80
2019-05-14T12:28:56.097Z,3.83
2019-05-14T12:31:25.615Z,3.77
2019-05-14T12:33:58.368Z,4.60
2019-05-14T12:36:29.409Z,4.60
2019-05-14T12:39:01.233Z,4.63
2019-05-14T12:41:32.828Z,5.07
2019-05-14T12:44:03.810Z,3.73
2019-05-14T12:46:34.572Z,3.97
2019-05-14T12:49:05.504Z,4.40
2019-05-14T12:51:39.311Z,3.33
2019-05-14T12:54:09.351Z,4.07
2019-05-14T12:56:40.143Z,2.90
2019-05-14T12:59:11.536Z,3.37
2019-05-14T13:01:42.015Z,3.40
2019-05-14T13:04:12.695Z,3.63
2019-05-14T13:06:43.442Z,3.60
2019-05-14T13:09:21.011Z,3.40
2019-05-14T13:11:49.769Z,4.10
2019-05-14T13:14:20.556Z,4.70
2019-05-14T13:16:54.444Z,4.70
2019-05-14T13:19:23.491Z,4.17
2019-05-14T13:22:10.021Z,4.30
2019-05-14T13:24:28.780Z,3.90
2019-05-14T13:26:59.026Z,4.73
2019-05-14T13:29:29.871Z,4.97
2019-05-14T13:32:00.592Z,4.73
2019-05-14T13:34:31.433Z,6.00
2019-05-14T13:37:02.071Z,5.90
2019-05-14T13:39:33.007Z,4.67
2019-05-14T13:42:03.848Z,6.70
2019-05-14T13:44:34.603Z,6.67
2019-05-14T13:47:05.704Z,5.80
2019-05-14T13:49:39.085Z,4.53
2019-05-14T13:52:09.490Z,4.97
2019-05-14T13:54:40.319Z,5.97
2019-05-14T13:57:12.199Z,7.07
2019-05-14T13:59:44.800Z,6.70
2019-05-14T14:02:15.593Z,5.20
2019-05-14T14:04:48.282Z,4.87
2019-05-14T14:07:20.044Z,5.77
2019-05-14T14:09:50.943Z,7.47
2019-05-14T14:12:25.035Z,5.70
2019-05-14T14:14:53.836Z,5.87
2019-05-14T14:17:24.373Z,4.93
2019-05-14T14:19:55.219Z,5.33
2019-05-14T14:22:25.770Z,5.87
2019-05-14T14:24:59.096Z,5.87
2019-05-14T14:27:29.931Z,6.83
2019-05-14T14:30:01.121Z,6.83
2019-05-14T14:32:32.171Z,8.03
2019-05-14T14:35:02.929Z,5.30
2019-05-14T14:37:33.506Z,5.40
2019-05-14T14:40:04.547Z,7.20
2019-05-14T14:42:36.005Z,6.40
2019-05-14T14:45:08.638Z,5.70
2019-05-14T14:47:40.029Z,9.23
2019-05-14T14:50:12.361Z,6.57
2019-05-14T14:52:43.007Z,6.67
2019-05-14T14:55:14.903Z,7.60
2019-05-14T14:57:46.311Z,7.10
2019-05-14T15:00:19.571Z,6.63
2019-05-14T15:02:50.328Z,8.80
2019-05-14T15:05:21.124Z,6.50
2019-05-14T15:07:51.713Z,6.27
2019-05-14T15:10:22.329Z,8.70
2019-05-14T15:12:52.895Z,7.00
2019-05-14T15:15:23.477Z,9.10
2019-05-14T15:17:53.963Z,6.63
2019-05-14T15:20:24.808Z,6.07
2019-05-14T15:22:55.483Z,5.83
2019-05-14T15:25:26.263Z,6.53
2019-05-14T15:27:58.394Z,6.50
2019-05-14T15:30:29.150Z,6.57
2019-05-14T15:32:59.945Z,6.20
2019-05-14T15:35:30.654Z,7.00
2019-05-14T15:38:01.272Z,6.07
2019-05-14T15:40:32.075Z,6.37
2019-05-14T15:43:02.984Z,6.73
2019-05-14T15:45:34.024Z,6.77
2019-05-14T15:48:04.513Z,8.00
2019-05-14T15:50:38.604Z,9.23
2019-05-14T15:53:10.818Z,9.50
2019-05-14T15:55:40.181Z,8.90
2019-05-14T15:58:10.715Z,8.87
2019-05-14T16:00:41.801Z,8.13
2019-05-14T16:03:12.721Z,8.77
2019-05-14T16:05:43.401Z,7.93
2019-05-14T16:08:14.089Z,8.07
2019-05-14T16:10:44.968Z,9.33
2019-05-14T16:13:15.841Z,8.43
2019-05-14T16:15:48.400Z,8.40
2019-05-14T16:18:22.042Z,7.87
2019-05-14T16:20:51.326Z,9.07
2019-05-14T16:23:22.283Z,8.23
2019-05-14T16:25:52.948Z,8.77
2019-05-14T16:28:25.045Z,9.60
2019-05-14T16:30:55.891Z,10.03
2019-05-14T16:33:29.008Z,10.20
2019-05-14T16:35:58.828Z,9.50
2019-05-14T16:38:29.364Z,10.90
2019-05-14T16:41:00.131Z,10.43
2019-05-14T16:43:32.400Z,11.13
2019-05-14T16:46:03.567Z,11.23
2019-05-14T16:48:34.198Z,11.10
2019-05-14T16:51:05.152Z,12.43
2019-05-14T16:53:37.865Z,11.33
2019-05-14T16:56:08.449Z,11.43
2019-05-14T16:58:39.153Z,11.67
2019-05-14T17:01:10.105Z,11.90
2019-05-14T17:03:42.199Z,11.37
2019-05-14T17:06:13.013Z,10.87
2019-05-14T17:08:43.948Z,11.77
2019-05-14T17:11:14.692Z,12.37
2019-05-14T17:13:45.197Z,11.20
2019-05-14T17:16:15.809Z,11.30
2019-05-14T17:18:48.634Z,12.83
2019-05-14T17:21:20.336Z,14.17
2019-05-14T17:23:51.120Z,13.07
2019-05-14T17:26:21.753Z,11.63
2019-05-14T17:28:52.569Z,12.40
2019-05-14T17:31:23.222Z,10.47
2019-05-14T17:33:54.274Z,12.97
2019-05-14T17:36:25.091Z,12.83
2019-05-14T17:38:55.805Z,12.77
2019-05-14T17:41:26.460Z,12.80
2019-05-14T17:43:58.622Z,13.07
2019-05-14T17:46:29.370Z,15.10
2019-05-14T17:49:00.480Z,13.93
2019-05-14T17:51:31.598Z,16.10
2019-05-14T17:54:02.786Z,15.97
2019-05-14T17:56:33.631Z,15.53
2019-05-14T17:59:04.505Z,12.63
2019-05-14T18:01:35.799Z,15.70
2019-05-14T18:04:08.908Z,12.97
2019-05-14T18:06:38.661Z,12.33
2019-05-14T18:09:09.566Z,13.17
2019-05-14T18:11:41.000Z,14.03
2019-05-14T18:14:12.122Z,14.50
2019-05-14T18:16:42.965Z,14.20
2019-05-14T18:19:14.088Z,14.33
2019-05-14T18:21:48.420Z,12.93
2019-05-14T18:24:18.935Z,12.53
2019-05-14T18:26:51.449Z,13.73
2019-05-14T18:29:22.326Z,14.27
2019-05-14T18:31:54.594Z,14.33
2019-05-14T18:34:25.281Z,15.33
2019-05-14T18:36:55.878Z,15.80
2019-05-14T18:39:28.338Z,16.77
2019-05-14T18:42:00.559Z,15.90
2019-05-14T18:44:32.021Z,16.10
2019-05-14T18:47:05.538Z,18.47
2019-05-14T18:49:36.550Z,19.90
2019-05-14T18:52:08.868Z,18.97
2019-05-14T18:54:40.270Z,18.00
2019-05-14T18:57:12.255Z,20.70
2019-05-14T18:59:43.277Z,19.97
2019-05-14T19:02:14.216Z,18.33
2019-05-14T19:04:45.158Z,18.57
2019-05-14T19:07:18.686Z,18.30
2019-05-14T19:09:50.173Z,18.23
2019-05-14T19:12:21.250Z,18.40
2019-05-14T19:14:52.126Z,17.83
2019-05-14T19:17:23.329Z,17.87
2019-05-14T19:19:55.802Z,17.17
2019-05-14T19:22:28.594Z,17.43
2019-05-14T19:24:58.881Z,16.20
2019-05-14T19:27:29.710Z,16.97
2019-05-14T19:30:03.180Z,17.60
2019-05-14T19:32:33.762Z,16.63
2019-05-14T19:35:05.485Z,17.03
2019-05-14T19:37:38.787Z,16.33
2019-05-14T19:40:10.903Z,16.50
2019-05-14T19:42:42.033Z,15.40
2019-05-14T19:45:13.997Z,15.73
2019-05-14T19:47:44.804Z,17.27
2019-05-14T19:50:15.898Z,17.43
2019-05-14T19:52:48.828Z,16.73
2019-05-14T19:55:20.308Z,16.20
2019-05-14T19:57:53.736Z,16.50
2019-05-14T20:00:28.854Z,14.23
2019-05-14T20:02:59.168Z,15.23
2019-05-14T20:05:31.450Z,14.70
2019-05-14T20:08:04.206Z,15.40
2019-05-14T20:10:35.282Z,15.23
2019-05-14T20:13:05.827Z,14.50
2019-05-14T20:15:38.892Z,14.53
2019-05-14T20:18:09.562Z,15.47
2019-05-14T20:20:40.271Z,16.43
2019-05-14T20:23:12.296Z,15.63
2019-05-14T20:25:42.903Z,16.83
2019-05-14T20:28:13.561Z,16.77
2019-05-14T20:30:44.501Z,17.23
2019-05-14T20:33:15.462Z,16.67
2019-05-14T20:35:47.926Z,15.43
2019-05-14T20:38:18.682Z,15.87
2019-05-14T20:40:49.391Z,16.87
2019-05-14T20:43:20.015Z,16.17
2019-05-14T20:45:50.539Z,17.33
2019-05-14T20:48:21.274Z,15.43
2019-05-14T20:50:52.009Z,15.73
2019-05-14T20:53:22.331Z,19.73
2019-05-14T20:55:52.792Z,17.87
2019-05-14T20:58:23.294Z,17.30
2019-05-14T21:00:53.710Z,16.40
2019-05-14T21:03:25.880Z,16.63
2019-05-14T21:05:58.212Z,15.57
2019-05-14T21:08:28.725Z,18.30
2019-05-14T21:10:59.312Z,17.33
2019-05-14T21:13:29.920Z,17.73
2019-05-14T21:16:00.435Z,16.37
2019-05-14T21:18:35.231Z,16.70
2019-05-14T21:21:03.101Z,18.10
2019-05-14T21:23:33.608Z,18.57
2019-05-14T21:26:04.121Z,17.20
2019-05-14T21:28:34.780Z,17.87
2019-05-14T21:31:05.272Z,19.27
2019-05-14T21:33:35.759Z,17.27
2019-05-14T21:36:06.529Z,17.37
2019-05-14T21:38:37.901Z,17.93
2019-05-14T21:41:09.149Z,18.73
2019-05-14T21:43:39.684Z,19.37
2019-05-14T21:46:10.201Z,20.43
2019-05-14T21:48:40.660Z,18.30
2019-05-14T21:51:11.248Z,20.03
2019-05-14T21:53:41.796Z,19.87
2019-05-14T21:56:12.697Z,20.87
2019-05-14T21:58:43.109Z,19.30
2019-05-14T22:01:33.536Z,21.90
2019-05-14T22:04:04.463Z,23.30
2019-05-14T22:06:35.010Z,21.37
2019-05-14T22:09:08.741Z,19.60
2019-05-14T22:11:39.548Z,19.63
2019-05-14T22:14:10.386Z,20.53
2019-05-14T22:16:40.933Z,19.53
2019-05-14T22:19:11.649Z,20.37
2019-05-14T22:21:42.286Z,19.67
2019-05-14T22:24:12.876Z,19.30
2019-05-14T22:26:43.510Z,20.17
2019-05-14T22:29:14.017Z,21.27
2019-05-14T22:31:44.608Z,21.10
2019-05-14T22:34:15.088Z,20.33
2019-05-14T22:36:45.556Z,21.30
2019-05-14T22:39:19.797Z,22.03
2019-05-14T22:41:48.176Z,20.87
2019-05-14T22:44:18.736Z,21.13
2019-05-14T22:46:49.314Z,20.90
2019-05-14T22:49:19.916Z,20.30
2019-05-14T22:51:50.473Z,21.67
2019-05-14T22:54:21.106Z,15.53
2019-05-14T22:56:51.633Z,18.50
2019-05-14T22:59:22.102Z,19.77
2019-05-14T23:01:52.578Z,21.20
2019-05-14T23:04:23.076Z,20.50
2019-05-14T23:06:54.067Z,20.50
2019-05-14T23:09:24.554Z,18.97
2019-05-14T23:11:55.084Z,19.77
2019-05-14T23:14:28.077Z,20.30
2019-05-14T23:16:57.895Z,19.13
2019-05-14T23:19:28.558Z,19.87
2019-05-14T23:21:59.199Z,20.13
2019-05-14T23:24:29.810Z,20.53
2019-05-14T23:27:00.347Z,20.00
2019-05-14T23:29:30.876Z,21.07
2019-05-14T23:32:01.376Z,19.53
2019-05-14T23:34:31.819Z,18.60
2019-05-14T23:37:02.566Z,20.23
2019-05-14T23:39:33.061Z,19.93
2019-05-14T23:42:04.228Z,19.73
2019-05-14T23:44:34.652Z,19.90
2019-05-14T23:47:05.122Z,19.13
2019-05-14T23:49:35.566Z,20.90
2019-05-14T23:52:06.025Z,18.90
2019-05-14T23:54:38.105Z,19.53
2019-05-14T23:57:08.963Z,19.47
2019-05-14T23:59:39.782Z,20.80
